sensor_id;sensor_type;location;lat;lon;timestamp;P1;durP1;ratioP1;P2;durP2;ratioP2
5454;SDS011;2750;49.050;9.250;2023-04-25T00:04:36;6.17;;;5.00;;
5454;SDS011;2750;49.050;9.250;2023-04-25T00:09:38;5.67;;;5.07;;
5454;SDS011;2750;49.050;9.250;2023-04-25T00:14:40;6.47;;;5.87;;
5454;SDS011;2750;49.050;9.250;2023-04-25T00:19:43;6.10;;;5.00;;
5454;SDS011;2750;49.050;9.250;2023-04-25T00:24:46;7.60;;;5.60;;
5454;SDS011;2750;49.050;9.250;2023-04-25T00:29:47;6.97;;;5.30;;
5454;SDS011;2750;49.050;9.250;2023-04-25T00:34:50;6.27;;;5.10;;
5454;SDS011;2750;49.050;9.250;2023-04-25T00:39:51;8.17;;;5.40;;
5454;SDS011;2750;49.050;9.250;2023-04-25T00:44:53;6.10;;;5.50;;
5454;SDS011;2750;49.050;9.250;2023-04-25T00:49:57;5.80;;;5.20;;
5454;SDS011;2750;49.050;9.250;2023-04-25T00:54:58;7.43;;;5.30;;
5454;SDS011;2750;49.050;9.250;2023-04-25T01:00:00;6.07;;;5.47;;
5454;SDS011;2750;49.050;9.250;2023-04-25T01:05:04;5.63;;;4.90;;
5454;SDS011;2750;49.050;9.250;2023-04-25T01:10:06;5.50;;;5.00;;
5454;SDS011;2750;49.050;9.250;2023-04-25T01:15:09;7.40;;;5.57;;
5454;SDS011;2750;49.050;9.250;2023-04-25T01:20:12;5.40;;;4.90;;
5454;SDS011;2750;49.050;9.250;2023-04-25T01:25:16;7.00;;;5.17;;
5454;SDS011;2750;49.050;9.250;2023-04-25T01:30:18;5.40;;;4.90;;
5454;SDS011;2750;49.050;9.250;2023-04-25T01:35:19;5.63;;;5.07;;
5454;SDS011;2750;49.050;9.250;2023-04-25T01:40:23;4.40;;;4.00;;
5454;SDS011;2750;49.050;9.250;2023-04-25T01:45:25;4.93;;;4.23;;
5454;SDS011;2750;49.050;9.250;2023-04-25T01:50:27;5.00;;;4.50;;
5454;SDS011;2750;49.050;9.250;2023-04-25T01:55:30;5.00;;;4.40;;
5454;SDS011;2750;49.050;9.250;2023-04-25T02:00:32;5.07;;;4.57;;
5454;SDS011;2750;49.050;9.250;2023-04-25T02:05:34;4.37;;;3.97;;
5454;SDS011;2750;49.050;9.250;2023-04-25T02:10:37;5.07;;;4.07;;
5454;SDS011;2750;49.050;9.250;2023-04-25T02:15:39;6.00;;;3.83;;
5454;SDS011;2750;49.050;9.250;2023-04-25T02:20:41;4.33;;;3.93;;
5454;SDS011;2750;49.050;9.250;2023-04-25T02:25:44;5.67;;;4.77;;
5454;SDS011;2750;49.050;9.250;2023-04-25T02:30:45;5.53;;;4.70;;
5454;SDS011;2750;49.050;9.250;2023-04-25T02:35:46;5.27;;;4.77;;
5454;SDS011;2750;49.050;9.250;2023-04-25T02:40:49;5.47;;;4.97;;
5454;SDS011;2750;49.050;9.250;2023-04-25T02:45:51;6.43;;;4.60;;
5454;SDS011;2750;49.050;9.250;2023-04-25T02:50:52;5.37;;;4.87;;
5454;SDS011;2750;49.050;9.250;2023-04-25T02:55:55;5.33;;;4.83;;
5454;SDS011;2750;49.050;9.250;2023-04-25T03:00:58;6.33;;;5.20;;
5454;SDS011;2750;49.050;9.250;2023-04-25T03:06:00;5.77;;;5.13;;
5454;SDS011;2750;49.050;9.250;2023-04-25T03:11:03;6.63;;;5.70;;
5454;SDS011;2750;49.050;9.250;2023-04-25T03:16:05;6.07;;;5.00;;
5454;SDS011;2750;49.050;9.250;2023-04-25T03:21:07;5.63;;;5.03;;
5454;SDS011;2750;49.050;9.250;2023-04-25T03:26:09;7.57;;;5.47;;
5454;SDS011;2750;49.050;9.250;2023-04-25T03:31:11;7.73;;;5.80;;
5454;SDS011;2750;49.050;9.250;2023-04-25T03:36:12;5.70;;;5.03;;
5454;SDS011;2750;49.050;9.250;2023-04-25T03:41:15;6.67;;;5.43;;
5454;SDS011;2750;49.050;9.250;2023-04-25T03:46:17;5.47;;;4.93;;
5454;SDS011;2750;49.050;9.250;2023-04-25T03:51:18;8.23;;;5.70;;
5454;SDS011;2750;49.050;9.250;2023-04-25T03:56:21;7.30;;;5.70;;
5454;SDS011;2750;49.050;9.250;2023-04-25T04:01:22;6.83;;;6.13;;
5454;SDS011;2750;49.050;9.250;2023-04-25T04:06:24;6.73;;;6.03;;
5454;SDS011;2750;49.050;9.250;2023-04-25T04:11:27;6.83;;;6.13;;
5454;SDS011;2750;49.050;9.250;2023-04-25T04:16:28;6.87;;;5.83;;
5454;SDS011;2750;49.050;9.250;2023-04-25T04:21:30;7.00;;;6.30;;
5454;SDS011;2750;49.050;9.250;2023-04-25T04:26:33;7.27;;;5.93;;
5454;SDS011;2750;49.050;9.250;2023-04-25T04:31:35;5.50;;;4.90;;
5454;SDS011;2750;49.050;9.250;2023-04-25T04:36:36;7.07;;;5.23;;
5454;SDS011;2750;49.050;9.250;2023-04-25T04:41:41;7.60;;;6.17;;
5454;SDS011;2750;49.050;9.250;2023-04-25T04:46:42;6.07;;;5.47;;
5454;SDS011;2750;49.050;9.250;2023-04-25T04:51:44;7.07;;;6.33;;
5454;SDS011;2750;49.050;9.250;2023-04-25T04:56:47;6.90;;;6.20;;
5454;SDS011;2750;49.050;9.250;2023-04-25T05:01:48;8.13;;;6.20;;
5454;SDS011;2750;49.050;9.250;2023-04-25T05:06:50;6.53;;;5.87;;
5454;SDS011;2750;49.050;9.250;2023-04-25T05:11:53;7.20;;;6.37;;
5454;SDS011;2750;49.050;9.250;2023-04-25T05:16:55;6.87;;;6.17;;
5454;SDS011;2750;49.050;9.250;2023-04-25T05:21:56;8.87;;;7.00;;
5454;SDS011;2750;49.050;9.250;2023-04-25T05:26:59;8.93;;;7.20;;
5454;SDS011;2750;49.050;9.250;2023-04-25T05:32:00;7.80;;;6.97;;
5454;SDS011;2750;49.050;9.250;2023-04-25T05:37:02;8.13;;;7.33;;
5454;SDS011;2750;49.050;9.250;2023-04-25T05:42:05;8.10;;;6.20;;
5454;SDS011;2750;49.050;9.250;2023-04-25T05:47:06;8.50;;;7.57;;
5454;SDS011;2750;49.050;9.250;2023-04-25T05:52:08;9.07;;;6.90;;
5454;SDS011;2750;49.050;9.250;2023-04-25T05:57:19;7.87;;;6.80;;
5454;SDS011;2750;49.050;9.250;2023-04-25T06:02:21;9.37;;;6.83;;
5454;SDS011;2750;49.050;9.250;2023-04-25T06:07:23;8.20;;;6.40;;
5454;SDS011;2750;49.050;9.250;2023-04-25T06:12:26;7.37;;;6.30;;
5454;SDS011;2750;49.050;9.250;2023-04-25T06:17:27;7.07;;;6.37;;
5454;SDS011;2750;49.050;9.250;2023-04-25T06:22:29;6.97;;;6.00;;
5454;SDS011;2750;49.050;9.250;2023-04-25T06:27:32;7.17;;;6.40;;
5454;SDS011;2750;49.050;9.250;2023-04-25T06:32:33;7.33;;;6.27;;
5454;SDS011;2750;49.050;9.250;2023-04-25T06:37:35;7.90;;;6.70;;
5454;SDS011;2750;49.050;9.250;2023-04-25T06:42:38;8.57;;;6.63;;
5454;SDS011;2750;49.050;9.250;2023-04-25T06:47:39;6.17;;;5.57;;
5454;SDS011;2750;49.050;9.250;2023-04-25T06:52:41;5.73;;;5.13;;
5454;SDS011;2750;49.050;9.250;2023-04-25T06:57:44;7.00;;;6.20;;
5454;SDS011;2750;49.050;9.250;2023-04-25T07:02:45;7.20;;;6.50;;
5454;SDS011;2750;49.050;9.250;2023-04-25T07:07:47;9.13;;;7.30;;
5454;SDS011;2750;49.050;9.250;2023-04-25T07:12:50;8.93;;;7.73;;
5454;SDS011;2750;49.050;9.250;2023-04-25T07:17:54;9.07;;;8.17;;
5454;SDS011;2750;49.050;9.250;2023-04-25T07:22:55;11.00;;;7.40;;
5454;SDS011;2750;49.050;9.250;2023-04-25T07:27:58;9.40;;;8.43;;
5454;SDS011;2750;49.050;9.250;2023-04-25T07:33:00;11.10;;;9.10;;
5454;SDS011;2750;49.050;9.250;2023-04-25T07:38:01;11.57;;;9.97;;
5454;SDS011;2750;49.050;9.250;2023-04-25T07:43:05;11.63;;;8.23;;
5454;SDS011;2750;49.050;9.250;2023-04-25T07:48:06;9.60;;;8.63;;
5454;SDS011;2750;49.050;9.250;2023-04-25T07:53:08;8.17;;;7.37;;
5454;SDS011;2750;49.050;9.250;2023-04-25T07:58:11;8.67;;;7.77;;
5454;SDS011;2750;49.050;9.250;2023-04-25T08:03:13;9.17;;;8.13;;
5454;SDS011;2750;49.050;9.250;2023-04-25T08:08:15;10.90;;;9.70;;
5454;SDS011;2750;49.050;9.250;2023-04-25T08:13:18;11.00;;;9.90;;
5454;SDS011;2750;49.050;9.250;2023-04-25T08:18:20;11.87;;;9.13;;
5454;SDS011;2750;49.050;9.250;2023-04-25T08:23:21;9.70;;;8.80;;
5454;SDS011;2750;49.050;9.250;2023-04-25T08:28:25;11.20;;;9.33;;
5454;SDS011;2750;49.050;9.250;2023-04-25T08:33:26;10.40;;;8.80;;
5454;SDS011;2750;49.050;9.250;2023-04-25T08:38:28;11.63;;;9.13;;
5454;SDS011;2750;49.050;9.250;2023-04-25T08:43:31;10.13;;;9.07;;
5454;SDS011;2750;49.050;9.250;2023-04-25T08:48:33;14.63;;;9.63;;
5454;SDS011;2750;49.050;9.250;2023-04-25T08:53:35;9.63;;;8.70;;
5454;SDS011;2750;49.050;9.250;2023-04-25T08:58:39;11.03;;;9.20;;
5454;SDS011;2750;49.050;9.250;2023-04-25T09:03:41;10.37;;;9.27;;
5454;SDS011;2750;49.050;9.250;2023-04-25T09:08:43;10.10;;;9.10;;
5454;SDS011;2750;49.050;9.250;2023-04-25T09:13:45;11.90;;;10.67;;
5454;SDS011;2750;49.050;9.250;2023-04-25T09:18:47;11.30;;;9.80;;
5454;SDS011;2750;49.050;9.250;2023-04-25T09:23:49;12.40;;;11.10;;
5454;SDS011;2750;49.050;9.250;2023-04-25T09:28:57;11.40;;;10.20;;
5454;SDS011;2750;49.050;9.250;2023-04-25T09:34:06;11.67;;;9.50;;
5454;SDS011;2750;49.050;9.250;2023-04-25T09:39:12;10.30;;;9.27;;
5454;SDS011;2750;49.050;9.250;2023-04-25T09:44:19;10.53;;;9.53;;
5454;SDS011;2750;49.050;9.250;2023-04-25T09:49:24;11.43;;;10.33;;
5454;SDS011;2750;49.050;9.250;2023-04-25T09:54:27;8.90;;;7.47;;
5454;SDS011;2750;49.050;9.250;2023-04-25T09:59:30;10.47;;;9.13;;
5454;SDS011;2750;49.050;9.250;2023-04-25T10:04:34;12.17;;;9.00;;
5454;SDS011;2750;49.050;9.250;2023-04-25T10:09:36;11.57;;;9.20;;
5454;SDS011;2750;49.050;9.250;2023-04-25T10:14:41;10.00;;;8.20;;
5454;SDS011;2750;49.050;9.250;2023-04-25T10:19:43;13.10;;;10.83;;
5454;SDS011;2750;49.050;9.250;2023-04-25T10:24:45;15.50;;;11.20;;
5454;SDS011;2750;49.050;9.250;2023-04-25T10:29:54;14.77;;;10.87;;
5454;SDS011;2750;49.050;9.250;2023-04-25T10:35:12;14.07;;;10.70;;
5454;SDS011;2750;49.050;9.250;2023-04-25T10:40:15;13.37;;;11.03;;
5454;SDS011;2750;49.050;9.250;2023-04-25T10:45:24;11.13;;;10.03;;
5454;SDS011;2750;49.050;9.250;2023-04-25T10:50:31;10.70;;;9.60;;
5454;SDS011;2750;49.050;9.250;2023-04-25T10:55:48;9.70;;;8.70;;
5454;SDS011;2750;49.050;9.250;2023-04-25T11:00:52;10.83;;;9.73;;
5454;SDS011;2750;49.050;9.250;2023-04-25T11:05:54;11.10;;;9.37;;
5454;SDS011;2750;49.050;9.250;2023-04-25T11:10:56;9.97;;;8.93;;
5454;SDS011;2750;49.050;9.250;2023-04-25T11:15:59;8.10;;;7.40;;
5454;SDS011;2750;49.050;9.250;2023-04-25T11:21:00;8.17;;;7.37;;
5454;SDS011;2750;49.050;9.250;2023-04-25T11:26:03;9.03;;;7.90;;
5454;SDS011;2750;49.050;9.250;2023-04-25T11:31:06;7.93;;;7.23;;
5454;SDS011;2750;49.050;9.250;2023-04-25T11:36:09;7.87;;;7.07;;
5454;SDS011;2750;49.050;9.250;2023-04-25T11:41:11;7.27;;;6.60;;
5454;SDS011;2750;49.050;9.250;2023-04-25T11:46:14;9.40;;;8.40;;
5454;SDS011;2750;49.050;9.250;2023-04-25T11:51:16;9.60;;;8.60;;
5454;SDS011;2750;49.050;9.250;2023-04-25T11:56:18;9.03;;;8.23;;
5454;SDS011;2750;49.050;9.250;2023-04-25T12:01:26;10.13;;;8.17;;
5454;SDS011;2750;49.050;9.250;2023-04-25T12:06:28;10.40;;;9.10;;
5454;SDS011;2750;49.050;9.250;2023-04-25T12:11:30;9.13;;;7.77;;
5454;SDS011;2750;49.050;9.250;2023-04-25T12:16:41;12.63;;;8.27;;
5454;SDS011;2750;49.050;9.250;2023-04-25T12:21:43;9.43;;;8.07;;
5454;SDS011;2750;49.050;9.250;2023-04-25T12:26:49;9.33;;;6.93;;
5454;SDS011;2750;49.050;9.250;2023-04-25T12:31:54;10.63;;;9.07;;
5454;SDS011;2750;49.050;9.250;2023-04-25T12:36:57;10.93;;;9.00;;
5454;SDS011;2750;49.050;9.250;2023-04-25T12:42:01;11.90;;;10.10;;
5454;SDS011;2750;49.050;9.250;2023-04-25T12:47:04;11.30;;;9.30;;
5454;SDS011;2750;49.050;9.250;2023-04-25T12:52:06;11.87;;;9.60;;
5454;SDS011;2750;49.050;9.250;2023-04-25T12:57:08;14.20;;;10.17;;
5454;SDS011;2750;49.050;9.250;2023-04-25T13:02:14;15.07;;;10.17;;
5454;SDS011;2750;49.050;9.250;2023-04-25T13:07:15;15.60;;;11.77;;
5454;SDS011;2750;49.050;9.250;2023-04-25T13:12:17;16.00;;;11.37;;
5454;SDS011;2750;49.050;9.250;2023-04-25T13:17:20;13.20;;;10.90;;
5454;SDS011;2750;49.050;9.250;2023-04-25T13:22:21;13.17;;;9.13;;
5454;SDS011;2750;49.050;9.250;2023-04-25T13:27:23;9.70;;;6.10;;
5454;SDS011;2750;49.050;9.250;2023-04-25T13:32:25;11.97;;;8.40;;
5454;SDS011;2750;49.050;9.250;2023-04-25T13:37:27;12.07;;;8.07;;
5454;SDS011;2750;49.050;9.250;2023-04-25T13:42:29;9.30;;;7.97;;
5454;SDS011;2750;49.050;9.250;2023-04-25T13:47:32;9.53;;;6.73;;
5454;SDS011;2750;49.050;9.250;2023-04-25T13:52:35;10.33;;;7.60;;
5454;SDS011;2750;49.050;9.250;2023-04-25T13:57:36;7.80;;;5.83;;
5454;SDS011;2750;49.050;9.250;2023-04-25T14:02:39;8.10;;;5.83;;
5454;SDS011;2750;49.050;9.250;2023-04-25T14:07:41;8.97;;;6.30;;
5454;SDS011;2750;49.050;9.250;2023-04-25T14:12:42;9.27;;;7.20;;
5454;SDS011;2750;49.050;9.250;2023-04-25T14:17:45;7.30;;;4.90;;
5454;SDS011;2750;49.050;9.250;2023-04-25T14:22:48;8.37;;;5.77;;
5454;SDS011;2750;49.050;9.250;2023-04-25T14:27:49;9.17;;;6.67;;
5454;SDS011;2750;49.050;9.250;2023-04-25T14:32:53;9.07;;;6.50;;
5454;SDS011;2750;49.050;9.250;2023-04-25T14:37:55;10.27;;;7.10;;
5454;SDS011;2750;49.050;9.250;2023-04-25T14:42:56;10.63;;;7.33;;
5454;SDS011;2750;49.050;9.250;2023-04-25T14:47:59;8.60;;;6.57;;
5454;SDS011;2750;49.050;9.250;2023-04-25T14:53:01;8.77;;;7.13;;
5454;SDS011;2750;49.050;9.250;2023-04-25T14:58:02;8.97;;;7.90;;
5454;SDS011;2750;49.050;9.250;2023-04-25T15:03:05;9.27;;;7.83;;
5454;SDS011;2750;49.050;9.250;2023-04-25T15:08:07;8.77;;;6.17;;
5454;SDS011;2750;49.050;9.250;2023-04-25T15:13:09;10.07;;;7.13;;
5454;SDS011;2750;49.050;9.250;2023-04-25T15:18:13;7.77;;;6.80;;
5454;SDS011;2750;49.050;9.250;2023-04-25T15:23:15;6.93;;;4.90;;
5454;SDS011;2750;49.050;9.250;2023-04-25T15:28:16;7.33;;;5.30;;
5454;SDS011;2750;49.050;9.250;2023-04-25T15:33:20;5.00;;;4.50;;
5454;SDS011;2750;49.050;9.250;2023-04-25T15:38:21;5.17;;;4.63;;
5454;SDS011;2750;49.050;9.250;2023-04-25T15:43:23;7.13;;;5.43;;
5454;SDS011;2750;49.050;9.250;2023-04-25T15:48:26;7.93;;;5.60;;
5454;SDS011;2750;49.050;9.250;2023-04-25T15:53:27;6.17;;;5.47;;
5454;SDS011;2750;49.050;9.250;2023-04-25T15:58:28;6.43;;;5.83;;
5454;SDS011;2750;49.050;9.250;2023-04-25T16:03:31;6.03;;;5.03;;
5454;SDS011;2750;49.050;9.250;2023-04-25T16:08:33;5.90;;;4.33;;
5454;SDS011;2750;49.050;9.250;2023-04-25T16:13:35;6.07;;;4.57;;
5454;SDS011;2750;49.050;9.250;2023-04-25T16:18:38;4.70;;;3.87;;
5454;SDS011;2750;49.050;9.250;2023-04-25T16:23:39;8.20;;;4.10;;
5454;SDS011;2750;49.050;9.250;2023-04-25T16:28:41;4.93;;;4.20;;
5454;SDS011;2750;49.050;9.250;2023-04-25T16:33:44;6.33;;;4.63;;
5454;SDS011;2750;49.050;9.250;2023-04-25T16:38:45;8.20;;;5.07;;
5454;SDS011;2750;49.050;9.250;2023-04-25T16:43:47;5.00;;;4.50;;
5454;SDS011;2750;49.050;9.250;2023-04-25T16:48:49;6.37;;;5.23;;
5454;SDS011;2750;49.050;9.250;2023-04-25T16:53:51;8.80;;;6.07;;
5454;SDS011;2750;49.050;9.250;2023-04-25T16:58:53;7.10;;;6.23;;
5454;SDS011;2750;49.050;9.250;2023-04-25T17:03:56;9.67;;;6.53;;
5454;SDS011;2750;49.050;9.250;2023-04-25T17:08:57;9.33;;;5.87;;
5454;SDS011;2750;49.050;9.250;2023-04-25T17:13:59;9.43;;;6.33;;
5454;SDS011;2750;49.050;9.250;2023-04-25T17:19:02;9.83;;;7.50;;
5454;SDS011;2750;49.050;9.250;2023-04-25T17:24:04;10.83;;;7.50;;
5454;SDS011;2750;49.050;9.250;2023-04-25T17:29:08;10.70;;;6.93;;
5454;SDS011;2750;49.050;9.250;2023-04-25T17:34:11;9.37;;;7.53;;
5454;SDS011;2750;49.050;9.250;2023-04-25T17:39:16;8.20;;;7.40;;
5454;SDS011;2750;49.050;9.250;2023-04-25T17:44:19;8.67;;;7.10;;
5454;SDS011;2750;49.050;9.250;2023-04-25T17:49:22;10.97;;;6.50;;
5454;SDS011;2750;49.050;9.250;2023-04-25T17:54:23;9.03;;;6.60;;
5454;SDS011;2750;49.050;9.250;2023-04-25T17:59:25;10.77;;;7.87;;
5454;SDS011;2750;49.050;9.250;2023-04-25T18:04:28;10.13;;;8.83;;
5454;SDS011;2750;49.050;9.250;2023-04-25T18:09:29;9.60;;;8.60;;
5454;SDS011;2750;49.050;9.250;2023-04-25T18:14:31;13.23;;;8.73;;
5454;SDS011;2750;49.050;9.250;2023-04-25T18:19:36;12.80;;;8.30;;
5454;SDS011;2750;49.050;9.250;2023-04-25T18:24:37;14.03;;;9.07;;
5454;SDS011;2750;49.050;9.250;2023-04-25T18:29:39;14.73;;;8.73;;
5454;SDS011;2750;49.050;9.250;2023-04-25T18:34:42;11.80;;;8.43;;
5454;SDS011;2750;49.050;9.250;2023-04-25T18:39:45;15.60;;;9.13;;
5454;SDS011;2750;49.050;9.250;2023-04-25T18:44:47;10.17;;;9.00;;
5454;SDS011;2750;49.050;9.250;2023-04-25T18:49:51;16.20;;;9.37;;
5454;SDS011;2750;49.050;9.250;2023-04-25T18:54:52;11.87;;;9.03;;
5454;SDS011;2750;49.050;9.250;2023-04-25T18:59:54;12.63;;;9.53;;
5454;SDS011;2750;49.050;9.250;2023-04-25T19:04:57;14.70;;;9.60;;
5454;SDS011;2750;49.050;9.250;2023-04-25T19:09:58;11.87;;;9.80;;
5454;SDS011;2750;49.050;9.250;2023-04-25T19:15:00;13.27;;;9.57;;
5454;SDS011;2750;49.050;9.250;2023-04-25T19:20:03;10.90;;;8.33;;
5454;SDS011;2750;49.050;9.250;2023-04-25T19:25:06;11.03;;;9.80;;
5454;SDS011;2750;49.050;9.250;2023-04-25T19:30:08;10.43;;;9.40;;
5454;SDS011;2750;49.050;9.250;2023-04-25T19:35:12;12.80;;;9.77;;
5454;SDS011;2750;49.050;9.250;2023-04-25T19:40:13;17.93;;;10.13;;
5454;SDS011;2750;49.050;9.250;2023-04-25T19:45:16;12.97;;;9.97;;
5454;SDS011;2750;49.050;9.250;2023-04-25T19:50:19;18.03;;;9.90;;
5454;SDS011;2750;49.050;9.250;2023-04-25T19:55:20;18.07;;;10.93;;
5454;SDS011;2750;49.050;9.250;2023-04-25T20:00:22;20.00;;;11.10;;
5454;SDS011;2750;49.050;9.250;2023-04-25T20:05:25;14.60;;;9.60;;
5454;SDS011;2750;49.050;9.250;2023-04-25T20:10:27;14.47;;;10.23;;
5454;SDS011;2750;49.050;9.250;2023-04-25T20:15:28;15.13;;;10.77;;
5454;SDS011;2750;49.050;9.250;2023-04-25T20:20:32;16.30;;;12.13;;
5454;SDS011;2750;49.050;9.250;2023-04-25T20:25:33;13.43;;;9.83;;
5454;SDS011;2750;49.050;9.250;2023-04-25T20:30:35;13.90;;;9.70;;
5454;SDS011;2750;49.050;9.250;2023-04-25T20:35:37;12.63;;;8.93;;
5454;SDS011;2750;49.050;9.250;2023-04-25T20:40:39;13.77;;;11.20;;
5454;SDS011;2750;49.050;9.250;2023-04-25T20:45:40;15.40;;;10.70;;
5454;SDS011;2750;49.050;9.250;2023-04-25T20:50:43;13.87;;;10.10;;
5454;SDS011;2750;49.050;9.250;2023-04-25T20:55:45;13.97;;;11.07;;
5454;SDS011;2750;49.050;9.250;2023-04-25T21:00:47;16.87;;;10.70;;
5454;SDS011;2750;49.050;9.250;2023-04-25T21:05:51;14.77;;;10.33;;
5454;SDS011;2750;49.050;9.250;2023-04-25T21:10:52;14.37;;;10.20;;
5454;SDS011;2750;49.050;9.250;2023-04-25T21:15:53;12.80;;;10.03;;
5454;SDS011;2750;49.050;9.250;2023-04-25T21:20:56;12.77;;;10.07;;
5454;SDS011;2750;49.050;9.250;2023-04-25T21:25:58;13.87;;;10.13;;
5454;SDS011;2750;49.050;9.250;2023-04-25T21:30:59;14.97;;;9.17;;
5454;SDS011;2750;49.050;9.250;2023-04-25T21:36:03;13.67;;;9.80;;
5454;SDS011;2750;49.050;9.250;2023-04-25T21:41:05;14.57;;;10.07;;
5454;SDS011;2750;49.050;9.250;2023-04-25T21:46:06;14.70;;;10.17;;
5454;SDS011;2750;49.050;9.250;2023-04-25T21:51:09;16.03;;;10.53;;
5454;SDS011;2750;49.050;9.250;2023-04-25T21:56:11;13.60;;;9.83;;
5454;SDS011;2750;49.050;9.250;2023-04-25T22:01:12;17.50;;;10.93;;
5454;SDS011;2750;49.050;9.250;2023-04-25T22:06:16;13.97;;;10.43;;
5454;SDS011;2750;49.050;9.250;2023-04-25T22:11:17;14.50;;;10.73;;
5454;SDS011;2750;49.050;9.250;2023-04-25T22:16:18;11.90;;;10.20;;
5454;SDS011;2750;49.050;9.250;2023-04-25T22:21:21;13.90;;;9.57;;
5454;SDS011;2750;49.050;9.250;2023-04-25T22:26:23;15.73;;;9.77;;
5454;SDS011;2750;49.050;9.250;2023-04-25T22:31:25;12.57;;;9.40;;
5454;SDS011;2750;49.050;9.250;2023-04-25T22:36:29;13.63;;;9.20;;
5454;SDS011;2750;49.050;9.250;2023-04-25T22:41:30;12.83;;;9.13;;
5454;SDS011;2750;49.050;9.250;2023-04-25T22:46:32;13.13;;;8.87;;
5454;SDS011;2750;49.050;9.250;2023-04-25T22:51:34;11.20;;;8.97;;
5454;SDS011;2750;49.050;9.250;2023-04-25T22:56:36;15.03;;;8.63;;
5454;SDS011;2750;49.050;9.250;2023-04-25T23:01:38;12.83;;;9.10;;
5454;SDS011;2750;49.050;9.250;2023-04-25T23:06:41;14.70;;;9.80;;
5454;SDS011;2750;49.050;9.250;2023-04-25T23:11:42;11.30;;;10.07;;
5454;SDS011;2750;49.050;9.250;2023-04-25T23:16:44;16.70;;;9.27;;
5454;SDS011;2750;49.050;9.250;2023-04-25T23:21:47;15.83;;;9.27;;
5454;SDS011;2750;49.050;9.250;2023-04-25T23:26:48;13.03;;;9.73;;
5454;SDS011;2750;49.050;9.250;2023-04-25T23:31:50;12.20;;;9.40;;
5454;SDS011;2750;49.050;9.250;2023-04-25T23:36:53;15.90;;;9.57;;
5454;SDS011;2750;49.050;9.250;2023-04-25T23:41:55;14.77;;;10.40;;
5454;SDS011;2750;49.050;9.250;2023-04-25T23:46:56;16.17;;;10.50;;
5454;SDS011;2750;49.050;9.250;2023-04-25T23:51:59;14.83;;;10.17;;
5454;SDS011;2750;49.050;9.250;2023-04-25T23:57:01;17.23;;;9.93;;
